createdAt,value
2023-09-08T00:00:51.647Z,1006.3
2023-09-08T00:02:07.778Z,1006.3
2023-09-08T00:03:23.925Z,1006.3
2023-09-08T00:04:40.059Z,1006.3
2023-09-08T00:05:56.208Z,1006.3
2023-09-08T00:07:12.341Z,1006.3
2023-09-08T00:08:28.465Z,1006.3
2023-09-08T00:09:44.605Z,1006.2
2023-09-08T00:11:00.737Z,1006.3
2023-09-08T00:12:16.873Z,1006.2
2023-09-08T00:13:33.014Z,1006.2
2023-09-08T00:14:49.152Z,1006.2
2023-09-08T00:16:05.305Z,1006.2
2023-09-08T00:17:21.432Z,1006.2
2023-09-08T00:18:37.552Z,1006.2
2023-09-08T00:19:53.697Z,1006.2
2023-09-08T00:21:09.821Z,1006.2
2023-09-08T00:22:25.980Z,1006.2
2023-09-08T00:23:42.000Z,1006.2
2023-09-08T00:24:58.248Z,1006.2
2023-09-08T00:26:14.365Z,1006.1
2023-09-08T00:27:30.503Z,1006.2
2023-09-08T00:28:46.658Z,1006.2
2023-09-08T00:30:02.787Z,1006.1
2023-09-08T00:31:18.918Z,1006.1
2023-09-08T00:32:35.057Z,1006.2
2023-09-08T00:33:51.188Z,1006.2
2023-09-08T00:35:07.340Z,1006.2
2023-09-08T00:36:23.474Z,1006.2
2023-09-08T00:37:39.610Z,1006.2
2023-09-08T00:38:55.794Z,1006.2
2023-09-08T00:40:11.038Z,1006.2
2023-09-08T00:41:26.238Z,1006.2
2023-09-08T00:42:41.383Z,1006.2
2023-09-08T00:43:57.538Z,1006.1
2023-09-08T00:45:13.670Z,1006.1
2023-09-08T00:46:29.815Z,1006.1
2023-09-08T00:47:45.932Z,1006.1
2023-09-08T00:49:02.067Z,1006.1
2023-09-08T00:50:18.214Z,1006.2
2023-09-08T00:51:34.354Z,1006.1
2023-09-08T00:52:50.480Z,1006.2
2023-09-08T00:54:06.627Z,1006.2
2023-09-08T00:55:22.760Z,1006.2
2023-09-08T00:56:38.906Z,1006.1
2023-09-08T00:57:55.041Z,1006.2
2023-09-08T00:59:11.168Z,1006.1
2023-09-08T01:00:27.296Z,1006.1
2023-09-08T01:01:43.422Z,1006.2
2023-09-08T01:02:59.589Z,1006.2
2023-09-08T01:04:15.719Z,1006.2
2023-09-08T01:05:31.854Z,1006.1
2023-09-08T01:06:47.983Z,1006.1
2023-09-08T01:08:04.114Z,1006.2
2023-09-08T01:09:20.253Z,1006.2
2023-09-08T01:10:36.388Z,1006.1
2023-09-08T01:11:52.530Z,1006.1
2023-09-08T01:13:08.668Z,1006.1
2023-09-08T01:14:24.795Z,1006.1
2023-09-08T01:15:40.941Z,1006.1
2023-09-08T01:16:57.063Z,1006.1
2023-09-08T01:18:13.196Z,1006.1
2023-09-08T01:19:29.339Z,1006.1
2023-09-08T01:20:45.478Z,1006.1
2023-09-08T01:22:01.619Z,1006.1
2023-09-08T01:23:17.753Z,1006.1
2023-09-08T01:24:33.891Z,1006.1
2023-09-08T01:25:50.022Z,1006
2023-09-08T01:27:06.154Z,1006.1
2023-09-08T01:28:22.000Z,1006
2023-09-08T01:29:38.495Z,1006
2023-09-08T01:30:53.729Z,1006
2023-09-08T01:32:08.930Z,1006
2023-09-08T01:33:25.062Z,1006
2023-09-08T01:34:41.202Z,1006
2023-09-08T01:35:57.345Z,1006
2023-09-08T01:37:13.466Z,1006
2023-09-08T01:38:29.625Z,1006
2023-09-08T01:39:45.746Z,1006
2023-09-08T01:41:01.887Z,1006
2023-09-08T01:42:18.006Z,1006
2023-09-08T01:43:34.153Z,1006
2023-09-08T01:44:50.298Z,1006
2023-09-08T01:46:06.428Z,1006
2023-09-08T01:47:22.565Z,1006
2023-09-08T01:48:38.693Z,1006
2023-09-08T01:49:54.824Z,1006
2023-09-08T01:51:10.987Z,1006
2023-09-08T01:52:27.113Z,1006
2023-09-08T01:53:43.241Z,1006
2023-09-08T01:54:59.376Z,1006
2023-09-08T01:56:15.515Z,1006
2023-09-08T01:57:31.668Z,1005.9
2023-09-08T01:58:47.787Z,1005.9
2023-09-08T02:00:03.919Z,1005.8
2023-09-08T02:01:20.053Z,1005.9
2023-09-08T02:02:36.199Z,1005.9
2023-09-08T02:03:52.398Z,1005.8
2023-09-08T02:06:23.818Z,1005.8
2023-09-08T02:07:39.034Z,1005.8
2023-09-08T02:08:55.173Z,1005.8
2023-09-08T02:10:11.292Z,1005.8
2023-09-08T02:11:27.431Z,1005.8
2023-09-08T02:12:43.562Z,1005.8
2023-09-08T02:13:59.705Z,1005.7
2023-09-08T02:15:15.842Z,1005.8
2023-09-08T02:16:31.982Z,1005.8
2023-09-08T02:17:48.118Z,1005.8
2023-09-08T02:19:04.235Z,1005.7
2023-09-08T02:20:20.398Z,1005.7
2023-09-08T02:21:36.533Z,1005.7
2023-09-08T02:22:52.669Z,1005.7
2023-09-08T02:24:08.785Z,1005.7
2023-09-08T02:25:24.930Z,1005.7
2023-09-08T02:26:41.072Z,1005.7
2023-09-08T02:27:57.210Z,1005.7
2023-09-08T02:29:13.334Z,1005.7
2023-09-08T02:30:29.482Z,1005.7
2023-09-08T02:31:45.597Z,1005.7
2023-09-08T02:33:01.757Z,1005.7
2023-09-08T02:34:17.883Z,1005.7
2023-09-08T02:35:34.021Z,1005.7
2023-09-08T02:36:50.145Z,1005.7
2023-09-08T02:38:06.282Z,1005.7
2023-09-08T02:39:22.498Z,1005.7
2023-09-08T02:40:37.721Z,1005.7
2023-09-08T02:41:52.946Z,1005.7
2023-09-08T02:43:09.075Z,1005.7
2023-09-08T02:44:25.211Z,1005.7
2023-09-08T02:45:41.352Z,1005.7
2023-09-08T02:46:57.489Z,1005.6
2023-09-08T02:48:13.609Z,1005.6
2023-09-08T02:49:29.765Z,1005.6
2023-09-08T02:50:45.904Z,1005.6
2023-09-08T02:52:02.027Z,1005.6
2023-09-08T02:53:18.153Z,1005.6
2023-09-08T02:54:34.291Z,1005.6
2023-09-08T02:55:50.443Z,1005.6
2023-09-08T02:57:06.575Z,1005.6
2023-09-08T02:58:22.708Z,1005.5
2023-09-08T02:59:38.848Z,1005.5
2023-09-08T03:00:54.976Z,1005.5
2023-09-08T03:02:11.123Z,1005.5
2023-09-08T03:03:27.259Z,1005.5
2023-09-08T03:04:43.391Z,1005.5
2023-09-08T03:05:59.515Z,1005.5
2023-09-08T03:07:15.655Z,1005.5
2023-09-08T03:08:31.807Z,1005.5
2023-09-08T03:09:47.942Z,1005.5
2023-09-08T03:11:04.067Z,1005.5
2023-09-08T03:12:20.201Z,1005.5
2023-09-08T03:13:36.386Z,1005.5
2023-09-08T03:14:51.640Z,1005.5
2023-09-08T03:16:06.898Z,1005.5
2023-09-08T03:17:22.104Z,1005.4
2023-09-08T03:18:38.233Z,1005.4
2023-09-08T03:19:54.378Z,1005.4
2023-09-08T03:21:10.514Z,1005.5
2023-09-08T03:22:26.633Z,1005.4
2023-09-08T03:23:42.794Z,1005.4
2023-09-08T03:24:58.928Z,1005.4
2023-09-08T03:26:15.066Z,1005.5
2023-09-08T03:27:31.194Z,1005.4
2023-09-08T03:28:47.321Z,1005.5
2023-09-08T03:30:03.464Z,1005.5
2023-09-08T03:31:19.598Z,1005.4
2023-09-08T03:32:35.733Z,1005.5
2023-09-08T03:33:51.876Z,1005.4
2023-09-08T03:35:07.997Z,1005.5
2023-09-08T03:36:24.144Z,1005.5
2023-09-08T03:37:40.283Z,1005.5
2023-09-08T03:38:56.419Z,1005.5
2023-09-08T03:40:12.553Z,1005.5
2023-09-08T03:41:28.807Z,1005.5
2023-09-08T03:42:44.959Z,1005.5
2023-09-08T03:44:01.087Z,1005.4
2023-09-08T03:45:17.216Z,1005.5
2023-09-08T03:46:33.353Z,1005.5
2023-09-08T03:47:49.485Z,1005.5
2023-09-08T03:49:05.630Z,1005.5
2023-09-08T03:50:21.776Z,1005.4
2023-09-08T03:51:37.912Z,1005.4
2023-09-08T03:52:54.032Z,1005.4
2023-09-08T03:54:10.163Z,1005.4
2023-09-08T03:55:26.328Z,1005.4
2023-09-08T03:56:42.462Z,1005.4
2023-09-08T03:57:58.588Z,1005.4
2023-09-08T03:59:14.726Z,1005.4
2023-09-08T04:00:30.854Z,1005.4
2023-09-08T04:01:47.006Z,1005.4
2023-09-08T04:03:03.144Z,1005.4
2023-09-08T04:04:19.264Z,1005.4
2023-09-08T04:05:35.413Z,1005.4
2023-09-08T04:06:51.541Z,1005.4
2023-09-08T04:08:07.676Z,1005.4
2023-09-08T04:09:23.823Z,1005.4
2023-09-08T04:10:39.960Z,1005.4
2023-09-08T04:11:56.081Z,1005.4
2023-09-08T04:13:12.213Z,1005.4
2023-09-08T04:14:28.371Z,1005.4
2023-09-08T04:15:44.494Z,1005.4
2023-09-08T04:17:00.634Z,1005.4
2023-09-08T04:18:16.768Z,1005.4
2023-09-08T04:19:32.900Z,1005.4
2023-09-08T04:20:49.059Z,1005.4
2023-09-08T04:22:05.184Z,1005.3
2023-09-08T04:23:21.309Z,1005.4
2023-09-08T04:24:37.441Z,1005.4
2023-09-08T04:25:53.583Z,1005.4
2023-09-08T04:27:09.723Z,1005.4
2023-09-08T04:28:25.930Z,1005.4
2023-09-08T04:29:41.135Z,1005.4
2023-09-08T04:30:56.290Z,1005.4
2023-09-08T04:32:12.421Z,1005.4
2023-09-08T04:33:28.555Z,1005.4
2023-09-08T04:34:44.698Z,1005.3
2023-09-08T04:36:00.815Z,1005.3
2023-09-08T04:37:16.972Z,1005.3
2023-09-08T04:38:33.102Z,1005.3
2023-09-08T04:39:49.246Z,1005.3
2023-09-08T04:41:05.370Z,1005.4
2023-09-08T04:42:21.514Z,1005.3
2023-09-08T04:43:37.658Z,1005.4
2023-09-08T04:44:53.785Z,1005.4
2023-09-08T04:46:09.917Z,1005.4
2023-09-08T04:47:26.056Z,1005.4
2023-09-08T04:48:42.190Z,1005.4
2023-09-08T04:49:58.343Z,1005.4
2023-09-08T04:51:14.467Z,1005.3
2023-09-08T04:52:30.598Z,1005.3
2023-09-08T04:53:46.732Z,1005.3
2023-09-08T04:55:02.875Z,1005.3
2023-09-08T04:56:19.018Z,1005.3
2023-09-08T04:57:35.140Z,1005.3
2023-09-08T04:58:51.276Z,1005.3
2023-09-08T05:00:07.425Z,1005.3
2023-09-08T05:01:23.557Z,1005.3
2023-09-08T05:02:39.707Z,1005.4
2023-09-08T05:03:55.836Z,1005.3
2023-09-08T05:05:11.972Z,1005.4
2023-09-08T05:06:28.090Z,1005.3
2023-09-08T05:07:44.224Z,1005.4
2023-09-08T05:09:00.372Z,1005.4
2023-09-08T05:10:16.508Z,1005.4
2023-09-08T05:11:32.654Z,1005.4
2023-09-08T05:12:48.772Z,1005.4
2023-09-08T05:14:04.910Z,1005.5
2023-09-08T05:15:21.070Z,1005.5
2023-09-08T05:16:37.205Z,1005.5
2023-09-08T05:17:53.383Z,1005.5
2023-09-08T05:19:08.631Z,1005.5
2023-09-08T05:20:23.829Z,1005.5
2023-09-08T05:21:39.976Z,1005.5
2023-09-08T05:22:56.097Z,1005.5
2023-09-08T05:24:12.000Z,1005.5
2023-09-08T05:25:28.382Z,1005.5
2023-09-08T05:26:44.509Z,1005.4
2023-09-08T05:28:00.646Z,1005.5
2023-09-08T05:29:16.777Z,1005.5
2023-09-08T05:30:32.928Z,1005.5
2023-09-08T05:31:49.076Z,1005.5
2023-09-08T05:33:05.197Z,1005.5
2023-09-08T05:34:21.340Z,1005.5
2023-09-08T05:35:37.471Z,1005.5
2023-09-08T05:36:53.601Z,1005.5
2023-09-08T05:38:09.743Z,1005.5
2023-09-08T05:39:25.888Z,1005.5
2023-09-08T05:40:42.016Z,1005.5
2023-09-08T05:41:58.149Z,1005.5
2023-09-08T05:43:14.287Z,1005.5
2023-09-08T05:44:30.427Z,1005.5
2023-09-08T05:45:46.573Z,1005.5
2023-09-08T05:47:02.692Z,1005.5
2023-09-08T05:48:18.833Z,1005.5
2023-09-08T05:49:34.960Z,1005.5
2023-09-08T05:50:51.106Z,1005.4
2023-09-08T05:52:07.296Z,1005.4
2023-09-08T05:53:22.547Z,1005.4
2023-09-08T05:54:37.755Z,1005.4
2023-09-08T05:55:53.895Z,1005.5
2023-09-08T05:57:10.017Z,1005.4
2023-09-08T05:58:26.153Z,1005.5
2023-09-08T05:59:42.288Z,1005.4
2023-09-08T06:00:58.432Z,1005.5
2023-09-08T06:02:14.575Z,1005.5
2023-09-08T06:03:30.692Z,1005.5
2023-09-08T06:06:02.962Z,1005.5
2023-09-08T06:07:19.115Z,1005.6
2023-09-08T06:08:35.248Z,1005.5
2023-09-08T06:09:51.379Z,1005.5
2023-09-08T06:11:07.513Z,1005.5
2023-09-08T06:12:23.641Z,1005.5
2023-09-08T06:13:39.795Z,1005.5
2023-09-08T06:14:55.935Z,1005.5
2023-09-08T06:16:12.062Z,1005.5
2023-09-08T06:17:28.204Z,1005.5
2023-09-08T06:18:44.335Z,1005.4
2023-09-08T06:20:00.485Z,1005.4
2023-09-08T06:21:16.616Z,1005.4
2023-09-08T06:22:32.749Z,1005.4
2023-09-08T06:23:48.878Z,1005.4
2023-09-08T06:25:05.014Z,1005.4
2023-09-08T06:26:21.221Z,1005.4
2023-09-08T06:27:36.464Z,1005.4
2023-09-08T06:28:51.660Z,1005.5
2023-09-08T06:30:07.814Z,1005.4
2023-09-08T06:31:23.949Z,1005.5
2023-09-08T06:32:40.084Z,1005.4
2023-09-08T06:33:56.211Z,1005.4
2023-09-08T06:35:12.331Z,1005.4
2023-09-08T06:36:28.492Z,1005.4
2023-09-08T06:37:44.623Z,1005.4
2023-09-08T06:39:00.750Z,1005.4
2023-09-08T06:40:16.882Z,1005.4
2023-09-08T06:41:33.026Z,1005.4
2023-09-08T06:42:49.174Z,1005.4
2023-09-08T06:44:05.295Z,1005.4
2023-09-08T06:45:21.425Z,1005.4
2023-09-08T06:46:37.559Z,1005.4
2023-09-08T06:47:53.691Z,1005.4
2023-09-08T06:49:09.853Z,1005.3
2023-09-08T06:50:25.974Z,1005.4
2023-09-08T06:51:42.117Z,1005.4
2023-09-08T06:52:58.245Z,1005.4
2023-09-08T06:54:14.385Z,1005.4
2023-09-08T06:55:30.529Z,1005.4
2023-09-08T06:56:46.652Z,1005.4
2023-09-08T06:58:02.795Z,1005.3
2023-09-08T06:59:18.917Z,1005.4
2023-09-08T07:00:35.118Z,1005.4
2023-09-08T07:01:50.363Z,1005.4
2023-09-08T07:03:06.541Z,1005.4
2023-09-08T07:04:21.752Z,1005.5
2023-09-08T07:05:37.903Z,1005.5
2023-09-08T07:06:54.022Z,1005.5
2023-09-08T07:08:10.157Z,1005.5
2023-09-08T07:09:26.300Z,1005.4
2023-09-08T07:10:42.422Z,1005.5
2023-09-08T07:11:58.569Z,1005.5
2023-09-08T07:13:14.704Z,1005.5
2023-09-08T07:14:30.834Z,1005.5
2023-09-08T07:15:46.983Z,1005.5
2023-09-08T07:17:03.100Z,1005.5
2023-09-08T07:18:19.257Z,1005.5
2023-09-08T07:19:35.396Z,1005.5
2023-09-08T07:20:51.517Z,1005.5
2023-09-08T07:22:07.651Z,1005.5
2023-09-08T07:23:23.798Z,1005.5
2023-09-08T07:24:39.944Z,1005.5
2023-09-08T07:25:56.068Z,1005.5
2023-09-08T07:27:12.204Z,1005.5
2023-09-08T07:28:28.335Z,1005.5
2023-09-08T07:29:44.468Z,1005.6
2023-09-08T07:31:00.616Z,1005.5
2023-09-08T07:32:16.755Z,1005.5
2023-09-08T07:33:32.884Z,1005.6
2023-09-08T07:34:49.022Z,1005.6
2023-09-08T07:36:05.218Z,1005.6
2023-09-08T07:37:20.452Z,1005.6
2023-09-08T07:38:35.713Z,1005.6
2023-09-08T07:39:50.919Z,1005.6
2023-09-08T07:41:07.068Z,1005.6
2023-09-08T07:42:23.185Z,1005.6
2023-09-08T07:43:39.335Z,1005.6
2023-09-08T07:44:55.456Z,1005.6
2023-09-08T07:46:11.615Z,1005.6
2023-09-08T07:47:27.739Z,1005.6
2023-09-08T07:48:43.875Z,1005.7
2023-09-08T07:50:00.016Z,1005.6
2023-09-08T07:51:16.148Z,1005.6
2023-09-08T07:52:32.283Z,1005.6
2023-09-08T07:53:48.426Z,1005.6
2023-09-08T07:55:04.549Z,1005.7
2023-09-08T07:56:20.680Z,1005.6
2023-09-08T07:57:36.821Z,1005.6
2023-09-08T07:58:52.966Z,1005.6
2023-09-08T08:00:09.109Z,1005.6
2023-09-08T08:01:25.241Z,1005.6
2023-09-08T08:02:41.371Z,1005.6
2023-09-08T08:03:57.498Z,1005.6
2023-09-08T08:05:13.651Z,1005.6
2023-09-08T08:06:29.782Z,1005.6
2023-09-08T08:07:45.915Z,1005.5
2023-09-08T08:09:02.044Z,1005.5
2023-09-08T08:10:18.190Z,1005.5
2023-09-08T08:11:34.384Z,1005.5
2023-09-08T08:12:49.592Z,1005.5
2023-09-08T08:14:04.758Z,1005.5
2023-09-08T08:15:20.902Z,1005.6
2023-09-08T08:16:37.030Z,1005.5
2023-09-08T08:17:53.165Z,1005.6
2023-09-08T08:19:09.300Z,1005.6
2023-09-08T08:20:25.436Z,1005.6
2023-09-08T08:21:41.591Z,1005.5
2023-09-08T08:22:57.706Z,1005.5
2023-09-08T08:24:13.848Z,1005.6
2023-09-08T08:25:29.986Z,1005.5
2023-09-08T08:26:46.112Z,1005.6
2023-09-08T08:28:02.257Z,1005.6
2023-09-08T08:29:18.396Z,1005.6
2023-09-08T08:30:34.528Z,1005.5
2023-09-08T08:31:50.659Z,1005.5
2023-09-08T08:33:06.792Z,1005.5
2023-09-08T08:34:22.953Z,1005.5
2023-09-08T08:35:39.081Z,1005.5
2023-09-08T08:36:55.218Z,1005.4
2023-09-08T08:38:11.345Z,1005.5
2023-09-08T08:39:27.477Z,1005.5
2023-09-08T08:40:43.635Z,1005.5
2023-09-08T08:41:59.763Z,1005.4
2023-09-08T08:43:15.895Z,1005.4
2023-09-08T08:44:32.040Z,1005.4
2023-09-08T08:45:48.166Z,1005.4
2023-09-08T08:47:04.308Z,1005.4
2023-09-08T08:48:20.440Z,1005.4
2023-09-08T08:49:36.583Z,1005.4
2023-09-08T08:50:52.717Z,1005.4
2023-09-08T08:52:08.853Z,1005.4
2023-09-08T08:53:24.988Z,1005.4
2023-09-08T08:54:41.131Z,1005.4
2023-09-08T08:55:57.268Z,1005.3
2023-09-08T08:57:13.400Z,1005.4
2023-09-08T08:58:29.527Z,1005.4
2023-09-08T08:59:45.684Z,1005.3
2023-09-08T09:01:01.863Z,1005.4
2023-09-08T09:02:17.124Z,1005.4
2023-09-08T09:03:32.328Z,1005.3
2023-09-08T09:04:48.475Z,1005.3
2023-09-08T09:06:04.609Z,1005.3
2023-09-08T09:07:20.741Z,1005.3
2023-09-08T09:08:36.875Z,1005.3
2023-09-08T09:09:53.013Z,1005.3
2023-09-08T09:11:09.149Z,1005.3
2023-09-08T09:12:25.281Z,1005.3
2023-09-08T09:13:41.404Z,1005.4
2023-09-08T09:14:57.546Z,1005.3
2023-09-08T09:16:13.692Z,1005.3
2023-09-08T09:17:29.820Z,1005.3
2023-09-08T09:18:45.956Z,1005.3
2023-09-08T09:20:02.098Z,1005.2
2023-09-08T09:21:18.225Z,1005.3
2023-09-08T09:22:34.371Z,1005.3
2023-09-08T09:23:50.506Z,1005.3
2023-09-08T09:25:06.636Z,1005.3
2023-09-08T09:26:22.766Z,1005.3
2023-09-08T09:27:38.911Z,1005.3
2023-09-08T09:28:55.061Z,1005.3
2023-09-08T09:30:11.180Z,1005.3
2023-09-08T09:31:27.325Z,1005.4
2023-09-08T09:32:43.451Z,1005.3
2023-09-08T09:33:59.585Z,1005.3
2023-09-08T09:35:15.789Z,1005.3
2023-09-08T09:36:31.032Z,1005.2
2023-09-08T09:37:47.226Z,1005.2
2023-09-08T09:39:02.428Z,1005.2
2023-09-08T09:40:18.564Z,1005.2
2023-09-08T09:41:34.701Z,1005.2
2023-09-08T09:42:50.832Z,1005.2
2023-09-08T09:44:06.963Z,1005.2
2023-09-08T09:45:23.111Z,1005.2
2023-09-08T09:46:39.244Z,1005.2
2023-09-08T09:47:55.373Z,1005.2
2023-09-08T09:49:11.509Z,1005.2
2023-09-08T09:50:27.657Z,1005.1
2023-09-08T09:51:43.793Z,1005.1
2023-09-08T09:52:59.920Z,1005.1
2023-09-08T09:54:16.066Z,1005.2
2023-09-08T09:55:32.204Z,1005.1
2023-09-08T09:56:48.328Z,1005.1
2023-09-08T09:58:04.472Z,1005.1
2023-09-08T09:59:20.607Z,1005.1
2023-09-08T10:00:36.751Z,1005.1
2023-09-08T10:01:52.873Z,1005.1
2023-09-08T10:03:09.009Z,1005.1
2023-09-08T10:04:25.158Z,1005.1
2023-09-08T10:05:41.290Z,1005.1
2023-09-08T10:06:57.423Z,1005.1
2023-09-08T10:08:13.555Z,1005.1
2023-09-08T10:09:29.698Z,1005.1
2023-09-08T10:10:45.891Z,1005.1
2023-09-08T10:12:01.145Z,1005.1
2023-09-08T10:13:16.344Z,1005.1
2023-09-08T10:14:32.489Z,1005.1
2023-09-08T10:15:48.628Z,1005.1
2023-09-08T10:17:04.758Z,1005.1
2023-09-08T10:18:20.881Z,1005.1
2023-09-08T10:19:37.009Z,1005.1
2023-09-08T10:20:53.176Z,1005.1
2023-09-08T10:22:09.296Z,1005.1
2023-09-08T10:23:25.424Z,1005.1
2023-09-08T10:24:41.559Z,1005.1
2023-09-08T10:27:13.839Z,1005
2023-09-08T10:28:29.986Z,1005
2023-09-08T10:29:46.119Z,1005
2023-09-08T10:31:02.250Z,1005.1
2023-09-08T10:32:18.371Z,1005
2023-09-08T10:33:34.524Z,1005
2023-09-08T10:34:50.668Z,1005
2023-09-08T10:36:06.792Z,1005
2023-09-08T10:37:22.922Z,1005
2023-09-08T10:38:39.062Z,1005
2023-09-08T10:39:55.207Z,1005
2023-09-08T10:41:11.342Z,1005
2023-09-08T10:42:27.475Z,1004.9
2023-09-08T10:43:43.613Z,1004.9
2023-09-08T10:44:59.799Z,1004.9
2023-09-08T10:46:15.045Z,1004.9
2023-09-08T10:47:30.245Z,1004.9
2023-09-08T10:48:46.385Z,1005
2023-09-08T10:50:02.519Z,1004.9
2023-09-08T10:51:18.659Z,1004.9
2023-09-08T10:52:34.789Z,1004.9
2023-09-08T10:53:50.924Z,1004.9
2023-09-08T10:55:07.062Z,1004.9
2023-09-08T10:56:23.225Z,1004.9
2023-09-08T10:57:39.339Z,1004.9
2023-09-08T10:58:55.475Z,1004.9
2023-09-08T11:00:11.617Z,1004.9
2023-09-08T11:01:27.740Z,1004.9
2023-09-08T11:02:43.890Z,1004.9
2023-09-08T11:04:00.021Z,1004.9
2023-09-08T11:05:16.150Z,1004.9
2023-09-08T11:06:32.282Z,1004.9
2023-09-08T11:07:48.429Z,1004.8
2023-09-08T11:09:04.569Z,1004.9
2023-09-08T11:10:20.694Z,1004.9
2023-09-08T11:11:36.835Z,1004.8
2023-09-08T11:12:52.965Z,1004.9
2023-09-08T11:14:09.105Z,1004.8
2023-09-08T11:15:25.257Z,1004.9
2023-09-08T11:16:41.395Z,1004.8
2023-09-08T11:17:57.521Z,1004.9
2023-09-08T11:19:13.715Z,1004.9
2023-09-08T11:20:28.950Z,1004.8
2023-09-08T11:21:45.148Z,1004.7
2023-09-08T11:23:00.341Z,1004.7
2023-09-08T11:24:16.481Z,1004.7
2023-09-08T11:25:32.633Z,1004.7
2023-09-08T11:26:48.753Z,1004.6
2023-09-08T11:28:04.904Z,1004.7
2023-09-08T11:29:21.020Z,1004.6
2023-09-08T11:30:37.163Z,1004.6
2023-09-08T11:31:53.317Z,1004.6
2023-09-08T11:33:09.435Z,1004.6
2023-09-08T11:34:25.571Z,1004.6
2023-09-08T11:35:41.708Z,1004.6
2023-09-08T11:36:57.849Z,1004.6
2023-09-08T11:38:13.989Z,1004.6
2023-09-08T11:39:30.119Z,1004.6
2023-09-08T11:40:46.257Z,1004.6
2023-09-08T11:42:02.399Z,1004.6
2023-09-08T11:43:18.519Z,1004.6
2023-09-08T11:44:34.671Z,1004.6
2023-09-08T11:45:50.803Z,1004.6
2023-09-08T11:47:06.930Z,1004.5
2023-09-08T11:48:23.069Z,1004.5
2023-09-08T11:49:39.205Z,1004.5
2023-09-08T11:50:55.359Z,1004.5
2023-09-08T11:52:11.484Z,1004.5
2023-09-08T11:53:27.618Z,1004.5
2023-09-08T11:54:43.822Z,1004.5
2023-09-08T11:55:59.059Z,1004.5
2023-09-08T11:57:14.262Z,1004.5
2023-09-08T11:58:29.408Z,1004.5
2023-09-08T11:59:45.558Z,1004.5
2023-09-08T12:01:01.687Z,1004.5
2023-09-08T12:02:17.831Z,1004.5
2023-09-08T12:03:33.955Z,1004.5
2023-09-08T12:04:50.096Z,1004.5
2023-09-08T12:06:06.246Z,1004.5
2023-09-08T12:07:22.363Z,1004.5
2023-09-08T12:08:38.511Z,1004.5
2023-09-08T12:09:54.635Z,1004.5
2023-09-08T12:11:10.764Z,1004.5
2023-09-08T12:12:26.928Z,1004.5
2023-09-08T12:13:43.045Z,1004.6
2023-09-08T12:14:59.186Z,1004.5
2023-09-08T12:16:15.310Z,1004.5
2023-09-08T12:17:31.450Z,1004.5
2023-09-08T12:18:47.608Z,1004.5
2023-09-08T12:22:35.997Z,1004.5
2023-09-08T12:23:52.123Z,1004.4
2023-09-08T12:25:08.284Z,1004.4
2023-09-08T12:26:24.424Z,1004.4
2023-09-08T12:27:40.538Z,1004.4
2023-09-08T12:28:56.679Z,1004.4
2023-09-08T12:30:12.805Z,1004.4
2023-09-08T12:31:28.952Z,1004.4
2023-09-08T12:32:45.090Z,1004.3
2023-09-08T12:34:01.236Z,1004.4
2023-09-08T12:35:17.364Z,1004.3
2023-09-08T12:36:33.502Z,1004.3
2023-09-08T12:37:49.652Z,1004.3
2023-09-08T12:39:05.775Z,1004.3
2023-09-08T12:40:21.905Z,1004.3
2023-09-08T12:41:38.032Z,1004.3
2023-09-08T12:42:54.184Z,1004.3
2023-09-08T12:44:10.332Z,1004.2
2023-09-08T12:45:26.525Z,1004.2
2023-09-08T12:46:41.000Z,1004.2
2023-09-08T12:47:56.962Z,1004.2
2023-09-08T12:49:13.092Z,1004.2
2023-09-08T12:50:29.227Z,1004.2
2023-09-08T12:51:45.352Z,1004.2
2023-09-08T12:53:01.486Z,1004.2
2023-09-08T12:54:17.641Z,1004.2
2023-09-08T12:55:33.780Z,1004.1
2023-09-08T12:56:49.917Z,1004.1
2023-09-08T12:58:06.041Z,1004.1
2023-09-08T12:59:22.168Z,1004.1
2023-09-08T13:00:38.330Z,1004.1
2023-09-08T13:01:54.459Z,1004.1
2023-09-08T13:03:10.590Z,1004.1
2023-09-08T13:04:26.717Z,1004.1
2023-09-08T13:05:42.853Z,1004.1
2023-09-08T13:06:59.006Z,1004.1
2023-09-08T13:08:15.135Z,1004.1
2023-09-08T13:09:31.268Z,1004.1
2023-09-08T13:10:47.397Z,1004
2023-09-08T13:12:03.537Z,1004.1
2023-09-08T13:13:19.694Z,1004.1
2023-09-08T13:14:35.820Z,1004.1
2023-09-08T13:15:51.952Z,1004.1
2023-09-08T13:17:08.087Z,1004
2023-09-08T13:18:24.227Z,1004.1
2023-09-08T13:19:40.433Z,1004.1
2023-09-08T13:20:55.688Z,1004.1
2023-09-08T13:22:10.882Z,1004
2023-09-08T13:23:27.038Z,1004
2023-09-08T13:24:43.162Z,1004
2023-09-08T13:25:59.307Z,1004
2023-09-08T13:27:15.431Z,1003.9
2023-09-08T13:28:31.571Z,1004
2023-09-08T13:29:47.708Z,1003.9
2023-09-08T13:31:03.854Z,1004
2023-09-08T13:32:19.984Z,1003.9
2023-09-08T13:33:36.124Z,1004
2023-09-08T13:34:52.255Z,1003.9
2023-09-08T13:36:08.393Z,1003.9
2023-09-08T13:37:24.525Z,1003.9
2023-09-08T13:38:40.665Z,1003.9
2023-09-08T13:39:56.798Z,1003.9
2023-09-08T13:41:12.931Z,1003.9
2023-09-08T13:42:29.086Z,1003.9
2023-09-08T13:43:45.214Z,1003.9
2023-09-08T13:45:01.342Z,1003.9
2023-09-08T13:46:17.472Z,1003.9
2023-09-08T13:47:33.611Z,1003.8
2023-09-08T13:48:49.755Z,1003.8
2023-09-08T13:50:05.889Z,1003.8
2023-09-08T13:51:22.024Z,1003.8
2023-09-08T13:52:38.154Z,1003.7
2023-09-08T13:53:54.355Z,1003.8
2023-09-08T13:55:09.585Z,1003.7
2023-09-08T13:56:25.780Z,1003.7
2023-09-08T13:57:40.978Z,1003.7
2023-09-08T13:58:57.133Z,1003.7
2023-09-08T14:00:13.263Z,1003.7
2023-09-08T14:01:29.398Z,1003.7
2023-09-08T14:02:45.522Z,1003.7
2023-09-08T14:04:01.657Z,1003.7
2023-09-08T14:05:17.802Z,1003.7
2023-09-08T14:06:33.934Z,1003.7
2023-09-08T14:07:50.077Z,1003.7
2023-09-08T14:09:06.206Z,1003.7
2023-09-08T14:10:22.340Z,1003.6
2023-09-08T14:11:38.496Z,1003.7
2023-09-08T14:12:54.625Z,1003.7
2023-09-08T14:14:10.761Z,1003.6
2023-09-08T14:15:26.886Z,1003.6
2023-09-08T14:16:43.031Z,1003.6
2023-09-08T14:17:59.168Z,1003.6
2023-09-08T14:19:15.314Z,1003.6
2023-09-08T14:20:31.449Z,1003.6
2023-09-08T14:21:47.577Z,1003.6
2023-09-08T14:23:03.696Z,1003.6
2023-09-08T14:24:19.852Z,1003.6
2023-09-08T14:25:35.987Z,1003.6
2023-09-08T14:26:52.119Z,1003.6
2023-09-08T14:28:08.254Z,1003.6
2023-09-08T14:29:24.435Z,1003.6
2023-09-08T14:30:39.682Z,1003.6
2023-09-08T14:31:54.881Z,1003.6
2023-09-08T14:33:11.027Z,1003.5
2023-09-08T14:34:27.176Z,1003.6
2023-09-08T14:35:43.307Z,1003.5
2023-09-08T14:36:59.438Z,1003.5
2023-09-08T14:38:15.565Z,1003.5
2023-09-08T14:39:31.704Z,1003.5
2023-09-08T14:40:47.854Z,1003.5
2023-09-08T14:42:03.987Z,1003.5
2023-09-08T14:43:20.110Z,1003.5
2023-09-08T14:44:36.248Z,1003.5
2023-09-08T14:45:52.391Z,1003.5
2023-09-08T14:47:08.534Z,1003.5
2023-09-08T14:48:24.669Z,1003.5
2023-09-08T14:49:40.787Z,1003.4
2023-09-08T14:50:56.940Z,1003.4
2023-09-08T14:52:13.066Z,1003.4
2023-09-08T14:53:29.201Z,1003.4
2023-09-08T14:54:45.348Z,1003.4
2023-09-08T14:56:01.485Z,1003.4
2023-09-08T14:57:17.605Z,1003.4
2023-09-08T14:58:33.749Z,1003.4
2023-09-08T14:59:49.894Z,1003.4
2023-09-08T15:01:06.025Z,1003.4
2023-09-08T15:02:22.156Z,1003.4
2023-09-08T15:03:38.347Z,1003.4
2023-09-08T15:04:53.589Z,1003.4
2023-09-08T15:06:08.786Z,1003.4
2023-09-08T15:07:23.948Z,1003.4
2023-09-08T15:08:40.100Z,1003.3
2023-09-08T15:09:56.222Z,1003.3
2023-09-08T15:11:12.359Z,1003.4
2023-09-08T15:12:28.496Z,1003.4
2023-09-08T15:13:44.629Z,1003.3
2023-09-08T15:15:00.762Z,1003.3
2023-09-08T15:16:16.906Z,1003.4
2023-09-08T15:17:33.036Z,1003.3
2023-09-08T15:18:49.178Z,1003.3
2023-09-08T15:20:05.307Z,1003.4
2023-09-08T15:21:21.453Z,1003.4
2023-09-08T15:22:37.573Z,1003.4
2023-09-08T15:23:53.713Z,1003.4
2023-09-08T15:25:09.857Z,1003.3
2023-09-08T15:26:25.977Z,1003.3
2023-09-08T15:27:42.132Z,1003.3
2023-09-08T15:28:58.265Z,1003.3
2023-09-08T15:30:14.399Z,1003.3
2023-09-08T15:31:30.681Z,1003.2
2023-09-08T15:32:46.799Z,1003.2
2023-09-08T15:34:02.946Z,1003.3
2023-09-08T15:35:19.084Z,1003.2
2023-09-08T15:36:35.225Z,1003.2
2023-09-08T15:37:51.355Z,1003.2
2023-09-08T15:39:07.481Z,1003.3
2023-09-08T15:40:23.628Z,1003.2
2023-09-08T15:41:39.767Z,1003.2
2023-09-08T15:42:55.909Z,1003.2
2023-09-08T15:44:12.038Z,1003.2
2023-09-08T15:45:28.169Z,1003.2
2023-09-08T15:46:44.320Z,1003.2
2023-09-08T15:48:00.438Z,1003.2
2023-09-08T15:49:16.585Z,1003.2
2023-09-08T15:50:32.711Z,1003.2
2023-09-08T15:51:48.846Z,1003.2
2023-09-08T15:53:04.993Z,1003.2
2023-09-08T15:54:21.133Z,1003.2
2023-09-08T15:55:37.261Z,1003.2
2023-09-08T15:56:53.389Z,1003.2
2023-09-08T15:58:09.525Z,1003.2
2023-09-08T15:59:25.666Z,1003.2